LJPZ

Details ICAO LJPZ (POW)
Name PORTOROZ
Region Slovenia
Timezone Europe/Ljubljana (UTC+1.0)
Plans Departing 55
Arriving 108
Stats Elevation 7 ft / 2 m (AMSL)
Location 45.472400° 13.615700°
Runways 1
Magnetic Variation 3.557° E
Sunrise 2018-12-16 06:40:36 UTC / 2018-12-16 07:40:36 Local
Sunset 2018-12-16 15:24:13 UTC / 2018-12-16 16:24:13 Local
Advertisement - Login to hide

Runways

ID Width Length Bearing (true/mag) Surface Threshold Overrun Markings Lighting
15 98 ft / 30 m 3,939 ft / 1,201 m 151.28° / 147.73° ASPHALT 0 ft / 0 m 0 ft / 0 m APP EDGE THRESHOLD MALS
33 98 ft / 30 m 3,939 ft / 1,201 m 331.29° / 327.73° ASPHALT 751 ft / 229 m 0 ft / 0 m APP EDGE THRESHOLD

Map

Weather


0- 5 10 15 20 25 30 35+ Temperature / °C

Clouds and Precipitation
Forecast for 2018-12-16 18:00 UTC. Updated 15 minutes ago

Ground ~20,000 ft ~40,000 ft Winds

METAR

LJPZ 161530Z VRB02KT 9999 FEW033 SCT050 BKN220 06/M01 Q1018

TAF

Not found

Frequencies

Tower 129.32 MHz Portoroz TWR
Approach 129.32 MHz Portoroz APP
Warning: Do not use this data for real-world aviation or navigation. No guarantee of current accuracy is given.